sensor_id;sensor_type;location;lat;lon;timestamp;P1;durP1;ratioP1;P2;durP2;ratioP2
75209;SDS011;63796;53.136;14.882;2022-12-07T00:01:26;24.95;;;10.20;;
75209;SDS011;63796;53.136;14.882;2022-12-07T00:03:57;22.37;;;10.53;;
75209;SDS011;63796;53.136;14.882;2022-12-07T00:06:32;19.87;;;8.78;;
75209;SDS011;63796;53.136;14.882;2022-12-07T00:09:03;18.07;;;8.20;;
75209;SDS011;63796;53.136;14.882;2022-12-07T00:11:32;19.90;;;8.78;;
75209;SDS011;63796;53.136;14.882;2022-12-07T00:14:00;19.25;;;8.40;;
75209;SDS011;63796;53.136;14.882;2022-12-07T00:16:31;29.12;;;12.45;;
75209;SDS011;63796;53.136;14.882;2022-12-07T00:18:59;20.08;;;9.10;;
75209;SDS011;63796;53.136;14.882;2022-12-07T00:21:31;17.43;;;8.33;;
75209;SDS011;63796;53.136;14.882;2022-12-07T00:23:57;13.38;;;6.53;;
75209;SDS011;63796;53.136;14.882;2022-12-07T00:26:28;16.45;;;6.62;;
75209;SDS011;63796;53.136;14.882;2022-12-07T00:28:59;14.75;;;6.58;;
75209;SDS011;63796;53.136;14.882;2022-12-07T00:31:33;12.05;;;6.28;;
75209;SDS011;63796;53.136;14.882;2022-12-07T00:34:05;12.97;;;6.13;;
75209;SDS011;63796;53.136;14.882;2022-12-07T00:36:33;12.60;;;5.90;;
75209;SDS011;63796;53.136;14.882;2022-12-07T00:39:00;20.08;;;10.20;;
75209;SDS011;63796;53.136;14.882;2022-12-07T00:43:54;23.40;;;11.53;;
75209;SDS011;63796;53.136;14.882;2022-12-07T00:46:22;17.73;;;7.23;;
75209;SDS011;63796;53.136;14.882;2022-12-07T00:48:50;15.75;;;6.53;;
75209;SDS011;63796;53.136;14.882;2022-12-07T00:51:18;11.60;;;5.45;;
75209;SDS011;63796;53.136;14.882;2022-12-07T00:53:48;11.93;;;5.45;;
75209;SDS011;63796;53.136;14.882;2022-12-07T00:56:19;14.43;;;6.20;;
75209;SDS011;63796;53.136;14.882;2022-12-07T00:58:52;12.20;;;5.63;;
75209;SDS011;63796;53.136;14.882;2022-12-07T01:01:28;13.98;;;5.45;;
75209;SDS011;63796;53.136;14.882;2022-12-07T01:03:57;11.30;;;5.70;;
75209;SDS011;63796;53.136;14.882;2022-12-07T01:06:24;8.30;;;4.10;;
75209;SDS011;63796;53.136;14.882;2022-12-07T01:08:51;11.68;;;5.20;;
75209;SDS011;63796;53.136;14.882;2022-12-07T01:11:21;8.40;;;4.00;;
75209;SDS011;63796;53.136;14.882;2022-12-07T01:13:51;10.20;;;5.47;;
75209;SDS011;63796;53.136;14.882;2022-12-07T01:16:21;15.00;;;7.33;;
75209;SDS011;63796;53.136;14.882;2022-12-07T01:18:52;20.12;;;8.85;;
75209;SDS011;63796;53.136;14.882;2022-12-07T01:21:27;16.93;;;7.87;;
75209;SDS011;63796;53.136;14.882;2022-12-07T01:24:02;10.80;;;5.53;;
75209;SDS011;63796;53.136;14.882;2022-12-07T01:26:31;12.85;;;4.92;;
75209;SDS011;63796;53.136;14.882;2022-12-07T01:28:58;11.78;;;4.58;;
75209;SDS011;63796;53.136;14.882;2022-12-07T01:31:26;13.83;;;5.15;;
75209;SDS011;63796;53.136;14.882;2022-12-07T01:33:57;12.55;;;5.42;;
75209;SDS011;63796;53.136;14.882;2022-12-07T01:36:27;10.37;;;4.80;;
75209;SDS011;63796;53.136;14.882;2022-12-07T01:39:02;10.50;;;4.75;;
75209;SDS011;63796;53.136;14.882;2022-12-07T01:41:33;9.13;;;4.90;;
75209;SDS011;63796;53.136;14.882;2022-12-07T01:44:24;12.03;;;6.90;;
75209;SDS011;63796;53.136;14.882;2022-12-07T01:46:59;13.60;;;6.80;;
75209;SDS011;63796;53.136;14.882;2022-12-07T01:52:15;8.25;;;4.78;;
75209;SDS011;63796;53.136;14.882;2022-12-07T01:54:56;7.53;;;4.65;;
75209;SDS011;63796;53.136;14.882;2022-12-07T01:57:27;5.95;;;4.00;;
75209;SDS011;63796;53.136;14.882;2022-12-07T01:59:55;7.33;;;4.72;;
75209;SDS011;63796;53.136;14.882;2022-12-07T02:02:29;15.43;;;7.93;;
75209;SDS011;63796;53.136;14.882;2022-12-07T02:04:57;16.17;;;7.42;;
75209;SDS011;63796;53.136;14.882;2022-12-07T02:07:27;12.35;;;5.72;;
75209;SDS011;63796;53.136;14.882;2022-12-07T02:09:56;12.70;;;5.03;;
75209;SDS011;63796;53.136;14.882;2022-12-07T02:12:23;11.68;;;5.37;;
75209;SDS011;63796;53.136;14.882;2022-12-07T02:14:51;17.90;;;6.63;;
75209;SDS011;63796;53.136;14.882;2022-12-07T02:17:27;21.80;;;7.35;;
75209;SDS011;63796;53.136;14.882;2022-12-07T02:28:52;15.87;;;5.03;;
75209;SDS011;63796;53.136;14.882;2022-12-07T02:31:31;19.07;;;5.58;;
75209;SDS011;63796;53.136;14.882;2022-12-07T02:34:06;20.25;;;5.60;;
75209;SDS011;63796;53.136;14.882;2022-12-07T02:36:40;21.95;;;5.85;;
75209;SDS011;63796;53.136;14.882;2022-12-07T02:39:16;18.98;;;6.20;;
75209;SDS011;63796;53.136;14.882;2022-12-07T02:42:00;18.13;;;5.57;;
75209;SDS011;63796;53.136;14.882;2022-12-07T02:44:27;31.50;;;8.03;;
75209;SDS011;63796;53.136;14.882;2022-12-07T02:47:03;37.60;;;10.20;;
75209;SDS011;63796;53.136;14.882;2022-12-07T02:49:34;22.60;;;6.15;;
75209;SDS011;63796;53.136;14.882;2022-12-07T02:52:04;20.32;;;6.30;;
75209;SDS011;63796;53.136;14.882;2022-12-07T02:54:31;22.93;;;7.03;;
75209;SDS011;63796;53.136;14.882;2022-12-07T03:00:07;10.72;;;3.92;;
75209;SDS011;63796;53.136;14.882;2022-12-07T03:02:40;16.80;;;4.58;;
75209;SDS011;63796;53.136;14.882;2022-12-07T03:08:21;12.80;;;3.50;;
75209;SDS011;63796;53.136;14.882;2022-12-07T03:13:47;15.60;;;4.03;;
75209;SDS011;63796;53.136;14.882;2022-12-07T03:16:25;11.03;;;3.40;;
75209;SDS011;63796;53.136;14.882;2022-12-07T03:19:14;5.15;;;2.50;;
75209;SDS011;63796;53.136;14.882;2022-12-07T03:21:53;14.87;;;3.60;;
75209;SDS011;63796;53.136;14.882;2022-12-07T03:24:27;18.17;;;4.95;;
75209;SDS011;63796;53.136;14.882;2022-12-07T03:27:06;18.35;;;5.37;;
75209;SDS011;63796;53.136;14.882;2022-12-07T03:29:34;15.00;;;5.22;;
75209;SDS011;63796;53.136;14.882;2022-12-07T03:32:20;14.63;;;4.83;;
75209;SDS011;63796;53.136;14.882;2022-12-07T03:34:53;12.93;;;5.90;;
75209;SDS011;63796;53.136;14.882;2022-12-07T03:38:02;3.30;;;2.47;;
75209;SDS011;63796;53.136;14.882;2022-12-07T03:42:49;6.10;;;2.72;;
75209;SDS011;63796;53.136;14.882;2022-12-07T03:45:18;12.35;;;4.53;;
75209;SDS011;63796;53.136;14.882;2022-12-07T03:47:54;9.63;;;4.77;;
75209;SDS011;63796;53.136;14.882;2022-12-07T03:53:20;10.93;;;5.00;;
75209;SDS011;63796;53.136;14.882;2022-12-07T03:55:56;10.85;;;5.42;;
75209;SDS011;63796;53.136;14.882;2022-12-07T03:58:24;13.03;;;6.10;;
75209;SDS011;63796;53.136;14.882;2022-12-07T04:00:53;9.17;;;5.23;;
75209;SDS011;63796;53.136;14.882;2022-12-07T04:03:19;13.58;;;5.40;;
75209;SDS011;63796;53.136;14.882;2022-12-07T04:05:46;13.03;;;5.62;;
75209;SDS011;63796;53.136;14.882;2022-12-07T04:08:13;10.45;;;4.55;;
75209;SDS011;63796;53.136;14.882;2022-12-07T04:10:40;9.35;;;4.35;;
75209;SDS011;63796;53.136;14.882;2022-12-07T04:13:07;4.93;;;3.10;;
75209;SDS011;63796;53.136;14.882;2022-12-07T04:15:34;7.40;;;3.90;;
75209;SDS011;63796;53.136;14.882;2022-12-07T04:18:01;7.03;;;4.40;;
75209;SDS011;63796;53.136;14.882;2022-12-07T04:20:28;11.12;;;5.25;;
75209;SDS011;63796;53.136;14.882;2022-12-07T04:22:55;7.42;;;4.50;;
75209;SDS011;63796;53.136;14.882;2022-12-07T04:25:22;7.73;;;4.27;;
75209;SDS011;63796;53.136;14.882;2022-12-07T04:27:49;8.00;;;4.37;;
75209;SDS011;63796;53.136;14.882;2022-12-07T04:30:16;7.58;;;4.42;;
75209;SDS011;63796;53.136;14.882;2022-12-07T04:32:43;8.00;;;4.30;;
75209;SDS011;63796;53.136;14.882;2022-12-07T04:35:10;11.45;;;6.15;;
75209;SDS011;63796;53.136;14.882;2022-12-07T04:37:37;12.90;;;7.33;;
75209;SDS011;63796;53.136;14.882;2022-12-07T04:40:06;20.60;;;13.28;;
75209;SDS011;63796;53.136;14.882;2022-12-07T04:42:37;9.90;;;5.92;;
75209;SDS011;63796;53.136;14.882;2022-12-07T04:45:04;6.03;;;3.80;;
75209;SDS011;63796;53.136;14.882;2022-12-07T04:47:32;12.80;;;6.40;;
75209;SDS011;63796;53.136;14.882;2022-12-07T04:49:59;9.43;;;5.33;;
75209;SDS011;63796;53.136;14.882;2022-12-07T04:52:26;11.60;;;5.95;;
75209;SDS011;63796;53.136;14.882;2022-12-07T04:54:53;12.45;;;6.03;;
75209;SDS011;63796;53.136;14.882;2022-12-07T04:57:19;9.33;;;5.00;;
75209;SDS011;63796;53.136;14.882;2022-12-07T04:59:46;8.55;;;5.72;;
75209;SDS011;63796;53.136;14.882;2022-12-07T05:02:13;8.63;;;5.10;;
75209;SDS011;63796;53.136;14.882;2022-12-07T05:04:40;10.43;;;5.58;;
75209;SDS011;63796;53.136;14.882;2022-12-07T05:07:07;9.63;;;4.95;;
75209;SDS011;63796;53.136;14.882;2022-12-07T05:09:33;7.17;;;4.65;;
75209;SDS011;63796;53.136;14.882;2022-12-07T05:12:00;8.73;;;5.15;;
75209;SDS011;63796;53.136;14.882;2022-12-07T05:14:27;9.00;;;4.77;;
75209;SDS011;63796;53.136;14.882;2022-12-07T05:16:54;9.55;;;4.53;;
75209;SDS011;63796;53.136;14.882;2022-12-07T05:19:21;8.10;;;4.92;;
75209;SDS011;63796;53.136;14.882;2022-12-07T05:21:51;9.65;;;5.35;;
75209;SDS011;63796;53.136;14.882;2022-12-07T05:24:18;9.70;;;4.97;;
75209;SDS011;63796;53.136;14.882;2022-12-07T05:26:45;12.63;;;4.97;;
75209;SDS011;63796;53.136;14.882;2022-12-07T05:29:13;10.28;;;4.85;;
75209;SDS011;63796;53.136;14.882;2022-12-07T05:31:41;9.35;;;4.80;;
75209;SDS011;63796;53.136;14.882;2022-12-07T05:34:09;9.30;;;4.60;;
75209;SDS011;63796;53.136;14.882;2022-12-07T05:36:36;9.43;;;4.60;;
75209;SDS011;63796;53.136;14.882;2022-12-07T05:39:03;9.47;;;4.67;;
75209;SDS011;63796;53.136;14.882;2022-12-07T05:41:29;8.60;;;4.80;;
75209;SDS011;63796;53.136;14.882;2022-12-07T05:44:14;9.35;;;4.78;;
75209;SDS011;63796;53.136;14.882;2022-12-07T05:46:41;11.53;;;5.30;;
75209;SDS011;63796;53.136;14.882;2022-12-07T05:49:08;9.00;;;4.75;;
75209;SDS011;63796;53.136;14.882;2022-12-07T05:51:35;10.67;;;5.03;;
75209;SDS011;63796;53.136;14.882;2022-12-07T05:54:02;9.55;;;4.80;;
75209;SDS011;63796;53.136;14.882;2022-12-07T05:56:29;8.18;;;4.60;;
75209;SDS011;63796;53.136;14.882;2022-12-07T05:58:56;11.28;;;5.25;;
75209;SDS011;63796;53.136;14.882;2022-12-07T06:01:41;9.38;;;4.42;;
75209;SDS011;63796;53.136;14.882;2022-12-07T06:04:08;7.90;;;3.93;;
75209;SDS011;63796;53.136;14.882;2022-12-07T06:06:34;8.78;;;4.67;;
75209;SDS011;63796;53.136;14.882;2022-12-07T06:09:02;10.28;;;4.62;;
75209;SDS011;63796;53.136;14.882;2022-12-07T06:11:29;7.83;;;4.22;;
75209;SDS011;63796;53.136;14.882;2022-12-07T06:14:14;10.95;;;4.55;;
75209;SDS011;63796;53.136;14.882;2022-12-07T06:16:41;9.77;;;4.77;;
75209;SDS011;63796;53.136;14.882;2022-12-07T06:19:08;8.98;;;4.20;;
75209;SDS011;63796;53.136;14.882;2022-12-07T06:21:35;9.03;;;4.70;;
75209;SDS011;63796;53.136;14.882;2022-12-07T06:24:02;9.70;;;4.28;;
75209;SDS011;63796;53.136;14.882;2022-12-07T06:26:29;9.60;;;4.40;;
75209;SDS011;63796;53.136;14.882;2022-12-07T06:28:56;7.60;;;3.80;;
75209;SDS011;63796;53.136;14.882;2022-12-07T06:31:23;8.08;;;4.00;;
75209;SDS011;63796;53.136;14.882;2022-12-07T06:33:50;7.37;;;3.95;;
75209;SDS011;63796;53.136;14.882;2022-12-07T06:36:17;9.03;;;3.92;;
75209;SDS011;63796;53.136;14.882;2022-12-07T06:38:44;7.72;;;4.00;;
75209;SDS011;63796;53.136;14.882;2022-12-07T06:41:10;8.13;;;4.37;;
75209;SDS011;63796;53.136;14.882;2022-12-07T06:43:37;10.60;;;5.12;;
75209;SDS011;63796;53.136;14.882;2022-12-07T06:46:04;9.10;;;3.85;;
75209;SDS011;63796;53.136;14.882;2022-12-07T06:48:31;7.20;;;3.62;;
75209;SDS011;63796;53.136;14.882;2022-12-07T06:50:58;8.28;;;4.25;;
75209;SDS011;63796;53.136;14.882;2022-12-07T06:53:24;14.50;;;5.73;;
75209;SDS011;63796;53.136;14.882;2022-12-07T06:55:51;6.65;;;3.45;;
75209;SDS011;63796;53.136;14.882;2022-12-07T06:58:18;7.95;;;3.25;;
75209;SDS011;63796;53.136;14.882;2022-12-07T07:00:45;6.37;;;3.10;;
75209;SDS011;63796;53.136;14.882;2022-12-07T07:03:13;26.68;;;9.28;;
75209;SDS011;63796;53.136;14.882;2022-12-07T07:05:40;13.33;;;4.97;;
75209;SDS011;63796;53.136;14.882;2022-12-07T07:08:08;8.53;;;4.25;;
75209;SDS011;63796;53.136;14.882;2022-12-07T07:10:35;19.37;;;8.10;;
75209;SDS011;63796;53.136;14.882;2022-12-07T07:13:02;7.05;;;3.60;;
75209;SDS011;63796;53.136;14.882;2022-12-07T07:15:29;5.97;;;3.37;;
75209;SDS011;63796;53.136;14.882;2022-12-07T07:17:59;15.93;;;6.33;;
75209;SDS011;63796;53.136;14.882;2022-12-07T07:20:26;59.10;;;14.78;;
75209;SDS011;63796;53.136;14.882;2022-12-07T07:22:56;18.37;;;6.45;;
75209;SDS011;63796;53.136;14.882;2022-12-07T07:25:22;27.00;;;9.28;;
75209;SDS011;63796;53.136;14.882;2022-12-07T07:27:49;11.35;;;5.22;;
75209;SDS011;63796;53.136;14.882;2022-12-07T07:30:16;12.13;;;5.70;;
75209;SDS011;63796;53.136;14.882;2022-12-07T07:32:43;15.00;;;6.80;;
75209;SDS011;63796;53.136;14.882;2022-12-07T07:35:10;16.17;;;7.62;;
75209;SDS011;63796;53.136;14.882;2022-12-07T07:37:36;19.67;;;8.40;;
75209;SDS011;63796;53.136;14.882;2022-12-07T07:40:03;41.60;;;15.35;;
75209;SDS011;63796;53.136;14.882;2022-12-07T07:42:31;25.60;;;10.27;;
75209;SDS011;63796;53.136;14.882;2022-12-07T07:44:58;39.20;;;14.90;;
75209;SDS011;63796;53.136;14.882;2022-12-07T07:47:25;39.13;;;15.32;;
75209;SDS011;63796;53.136;14.882;2022-12-07T07:49:52;15.08;;;7.30;;
75209;SDS011;63796;53.136;14.882;2022-12-07T07:52:18;32.78;;;13.22;;
75209;SDS011;63796;53.136;14.882;2022-12-07T07:54:45;16.57;;;8.57;;
75209;SDS011;63796;53.136;14.882;2022-12-07T07:57:12;20.15;;;9.45;;
75209;SDS011;63796;53.136;14.882;2022-12-07T07:59:39;15.93;;;7.92;;
75209;SDS011;63796;53.136;14.882;2022-12-07T08:02:07;13.55;;;6.83;;
75209;SDS011;63796;53.136;14.882;2022-12-07T08:04:43;33.15;;;13.15;;
75209;SDS011;63796;53.136;14.882;2022-12-07T08:07:11;36.97;;;13.73;;
75209;SDS011;63796;53.136;14.882;2022-12-07T08:09:39;22.30;;;10.25;;
75209;SDS011;63796;53.136;14.882;2022-12-07T08:12:06;36.28;;;16.62;;
75209;SDS011;63796;53.136;14.882;2022-12-07T08:14:33;20.35;;;10.35;;
75209;SDS011;63796;53.136;14.882;2022-12-07T08:17:00;33.23;;;14.15;;
75209;SDS011;63796;53.136;14.882;2022-12-07T08:19:28;22.57;;;9.97;;
75209;SDS011;63796;53.136;14.882;2022-12-07T08:21:55;21.50;;;9.45;;
75209;SDS011;63796;53.136;14.882;2022-12-07T08:24:22;12.85;;;6.35;;
75209;SDS011;63796;53.136;14.882;2022-12-07T08:26:50;16.57;;;8.33;;
75209;SDS011;63796;53.136;14.882;2022-12-07T08:29:17;30.77;;;11.57;;
75209;SDS011;63796;53.136;14.882;2022-12-07T08:31:45;22.03;;;9.50;;
75209;SDS011;63796;53.136;14.882;2022-12-07T08:34:12;38.65;;;15.35;;
75209;SDS011;63796;53.136;14.882;2022-12-07T08:36:39;16.00;;;7.55;;
75209;SDS011;63796;53.136;14.882;2022-12-07T08:39:06;31.05;;;13.10;;
75209;SDS011;63796;53.136;14.882;2022-12-07T08:41:33;26.48;;;11.28;;
75209;SDS011;63796;53.136;14.882;2022-12-07T08:44:00;18.80;;;9.17;;
75209;SDS011;63796;53.136;14.882;2022-12-07T08:49:12;25.50;;;11.85;;
75209;SDS011;63796;53.136;14.882;2022-12-07T08:51:45;18.95;;;8.80;;
75209;SDS011;63796;53.136;14.882;2022-12-07T08:54:14;30.80;;;14.30;;
75209;SDS011;63796;53.136;14.882;2022-12-07T08:56:44;25.17;;;12.37;;
75209;SDS011;63796;53.136;14.882;2022-12-07T08:59:14;33.73;;;14.75;;
75209;SDS011;63796;53.136;14.882;2022-12-07T09:01:43;21.82;;;9.63;;
75209;SDS011;63796;53.136;14.882;2022-12-07T09:04:10;18.40;;;9.68;;
75209;SDS011;63796;53.136;14.882;2022-12-07T09:06:37;28.20;;;12.35;;
75209;SDS011;63796;53.136;14.882;2022-12-07T09:09:04;19.87;;;9.60;;
75209;SDS011;63796;53.136;14.882;2022-12-07T09:11:33;23.77;;;10.95;;
75209;SDS011;63796;53.136;14.882;2022-12-07T09:14:00;21.62;;;10.18;;
75209;SDS011;63796;53.136;14.882;2022-12-07T09:16:27;25.52;;;11.48;;
75209;SDS011;63796;53.136;14.882;2022-12-07T09:18:54;23.55;;;10.35;;
75209;SDS011;63796;53.136;14.882;2022-12-07T09:21:21;35.00;;;13.97;;
75209;SDS011;63796;53.136;14.882;2022-12-07T09:23:48;34.03;;;15.20;;
75209;SDS011;63796;53.136;14.882;2022-12-07T09:26:15;36.88;;;20.45;;
75209;SDS011;63796;53.136;14.882;2022-12-07T09:28:42;44.03;;;23.27;;
75209;SDS011;63796;53.136;14.882;2022-12-07T09:31:09;51.10;;;23.55;;
75209;SDS011;63796;53.136;14.882;2022-12-07T09:33:36;23.67;;;12.17;;
75209;SDS011;63796;53.136;14.882;2022-12-07T09:36:03;24.65;;;11.95;;
75209;SDS011;63796;53.136;14.882;2022-12-07T09:38:30;23.57;;;11.22;;
75209;SDS011;63796;53.136;14.882;2022-12-07T09:40:58;12.82;;;6.37;;
75209;SDS011;63796;53.136;14.882;2022-12-07T09:43:33;11.28;;;5.47;;
75209;SDS011;63796;53.136;14.882;2022-12-07T09:46:02;12.10;;;6.27;;
75209;SDS011;63796;53.136;14.882;2022-12-07T09:48:31;9.10;;;5.40;;
75209;SDS011;63796;53.136;14.882;2022-12-07T09:51:03;10.30;;;5.70;;
75209;SDS011;63796;53.136;14.882;2022-12-07T09:53:46;13.15;;;6.28;;
75209;SDS011;63796;53.136;14.882;2022-12-07T09:56:15;8.80;;;5.00;;
75209;SDS011;63796;53.136;14.882;2022-12-07T09:58:45;9.30;;;5.40;;
75209;SDS011;63796;53.136;14.882;2022-12-07T10:01:15;7.85;;;4.25;;
75209;SDS011;63796;53.136;14.882;2022-12-07T10:06:19;9.30;;;4.50;;
75209;SDS011;63796;53.136;14.882;2022-12-07T10:08:46;10.48;;;4.58;;
75209;SDS011;63796;53.136;14.882;2022-12-07T10:11:13;7.17;;;3.90;;
75209;SDS011;63796;53.136;14.882;2022-12-07T10:13:45;47.15;;;16.50;;
75209;SDS011;63796;53.136;14.882;2022-12-07T10:19:21;16.37;;;5.37;;
75209;SDS011;63796;53.136;14.882;2022-12-07T10:22:05;39.13;;;10.58;;
75209;SDS011;63796;53.136;14.882;2022-12-07T10:24:43;31.43;;;8.23;;
75209;SDS011;63796;53.136;14.882;2022-12-07T10:27:20;36.80;;;9.60;;
75209;SDS011;63796;53.136;14.882;2022-12-07T10:29:50;41.77;;;11.97;;
75209;SDS011;63796;53.136;14.882;2022-12-07T10:37:51;36.17;;;9.50;;
75209;SDS011;63796;53.136;14.882;2022-12-07T10:51:46;56.13;;;13.20;;
75209;SDS011;63796;53.136;14.882;2022-12-07T10:57:53;66.70;;;14.87;;
75209;SDS011;63796;53.136;14.882;2022-12-07T11:00:23;122.87;;;25.35;;
75209;SDS011;63796;53.136;14.882;2022-12-07T11:11:35;66.75;;;16.02;;
75209;SDS011;63796;53.136;14.882;2022-12-07T11:17:17;63.17;;;15.72;;
75209;SDS011;63796;53.136;14.882;2022-12-07T11:20:15;48.17;;;11.83;;
75209;SDS011;63796;53.136;14.882;2022-12-07T11:26:14;34.83;;;8.88;;
75209;SDS011;63796;53.136;14.882;2022-12-07T11:37:35;47.83;;;12.63;;
75209;SDS011;63796;53.136;14.882;2022-12-07T11:43:02;62.08;;;15.90;;
75209;SDS011;63796;53.136;14.882;2022-12-07T11:46:07;35.10;;;11.18;;
75209;SDS011;63796;53.136;14.882;2022-12-07T11:48:46;40.13;;;12.43;;
75209;SDS011;63796;53.136;14.882;2022-12-07T11:51:18;33.25;;;10.65;;
75209;SDS011;63796;53.136;14.882;2022-12-07T11:53:58;24.45;;;9.98;;
75209;SDS011;63796;53.136;14.882;2022-12-07T11:56:32;37.85;;;13.75;;
75209;SDS011;63796;53.136;14.882;2022-12-07T12:02:03;21.93;;;7.63;;
75209;SDS011;63796;53.136;14.882;2022-12-07T12:07:23;29.63;;;11.30;;
75209;SDS011;63796;53.136;14.882;2022-12-07T12:09:54;23.07;;;9.18;;
75209;SDS011;63796;53.136;14.882;2022-12-07T12:21:34;11.63;;;5.35;;
75209;SDS011;63796;53.136;14.882;2022-12-07T12:24:13;13.43;;;7.03;;
75209;SDS011;63796;53.136;14.882;2022-12-07T12:26:50;32.15;;;12.80;;
75209;SDS011;63796;53.136;14.882;2022-12-07T12:29:23;61.57;;;27.30;;
75209;SDS011;63796;53.136;14.882;2022-12-07T12:32:15;70.20;;;35.15;;
75209;SDS011;63796;53.136;14.882;2022-12-07T12:40:50;6.95;;;4.20;;
75209;SDS011;63796;53.136;14.882;2022-12-07T12:42:50;9.70;;;4.90;;
75209;SDS011;63796;53.136;14.882;2022-12-07T12:45:24;5.17;;;2.70;;
75209;SDS011;63796;53.136;14.882;2022-12-07T12:50:34;11.12;;;5.17;;
75209;SDS011;63796;53.136;14.882;2022-12-07T12:58:43;5.15;;;2.40;;
75209;SDS011;63796;53.136;14.882;2022-12-07T13:01:32;20.75;;;8.60;;
75209;SDS011;63796;53.136;14.882;2022-12-07T13:04:29;41.05;;;15.93;;
75209;SDS011;63796;53.136;14.882;2022-12-07T13:07:08;21.27;;;9.43;;
75209;SDS011;63796;53.136;14.882;2022-12-07T13:09:39;14.67;;;6.60;;
75209;SDS011;63796;53.136;14.882;2022-12-07T13:12:13;10.60;;;4.80;;
75209;SDS011;63796;53.136;14.882;2022-12-07T13:15:22;21.60;;;10.08;;
75209;SDS011;63796;53.136;14.882;2022-12-07T13:20:08;18.90;;;8.28;;
75209;SDS011;63796;53.136;14.882;2022-12-07T13:27:54;48.42;;;18.17;;
75209;SDS011;63796;53.136;14.882;2022-12-07T13:30:29;22.73;;;9.95;;
75209;SDS011;63796;53.136;14.882;2022-12-07T13:32:58;26.85;;;12.23;;
75209;SDS011;63796;53.136;14.882;2022-12-07T13:35:29;19.10;;;8.23;;
75209;SDS011;63796;53.136;14.882;2022-12-07T13:38:15;16.82;;;7.45;;
75209;SDS011;63796;53.136;14.882;2022-12-07T13:49:49;16.57;;;7.40;;
75209;SDS011;63796;53.136;14.882;2022-12-07T13:52:20;15.38;;;6.95;;
75209;SDS011;63796;53.136;14.882;2022-12-07T13:57:40;29.92;;;13.15;;
75209;SDS011;63796;53.136;14.882;2022-12-07T14:00:14;33.10;;;15.00;;
75209;SDS011;63796;53.136;14.882;2022-12-07T14:05:43;10.82;;;5.28;;
75209;SDS011;63796;53.136;14.882;2022-12-07T14:13:28;26.07;;;9.45;;
75209;SDS011;63796;53.136;14.882;2022-12-07T14:16:06;20.87;;;6.83;;
75209;SDS011;63796;53.136;14.882;2022-12-07T14:18:37;14.83;;;5.92;;
75209;SDS011;63796;53.136;14.882;2022-12-07T14:24:04;23.25;;;9.18;;
75209;SDS011;63796;53.136;14.882;2022-12-07T14:26:41;77.47;;;26.23;;
75209;SDS011;63796;53.136;14.882;2022-12-07T14:32:15;44.53;;;10.95;;
75209;SDS011;63796;53.136;14.882;2022-12-07T14:34:37;49.42;;;15.60;;
75209;SDS011;63796;53.136;14.882;2022-12-07T14:37:06;32.17;;;10.70;;
75209;SDS011;63796;53.136;14.882;2022-12-07T14:39:36;55.88;;;17.02;;
75209;SDS011;63796;53.136;14.882;2022-12-07T14:42:03;29.20;;;9.60;;
75209;SDS011;63796;53.136;14.882;2022-12-07T14:44:30;42.15;;;14.23;;
75209;SDS011;63796;53.136;14.882;2022-12-07T14:46:57;73.72;;;23.70;;
75209;SDS011;63796;53.136;14.882;2022-12-07T14:49:24;43.35;;;11.35;;
75209;SDS011;63796;53.136;14.882;2022-12-07T14:51:50;63.73;;;19.37;;
75209;SDS011;63796;53.136;14.882;2022-12-07T14:54:19;54.13;;;17.67;;
75209;SDS011;63796;53.136;14.882;2022-12-07T14:56:47;67.60;;;23.25;;
75209;SDS011;63796;53.136;14.882;2022-12-07T14:59:17;70.08;;;24.67;;
75209;SDS011;63796;53.136;14.882;2022-12-07T15:01:44;57.27;;;22.13;;
75209;SDS011;63796;53.136;14.882;2022-12-07T15:04:11;75.03;;;24.55;;
75209;SDS011;63796;53.136;14.882;2022-12-07T15:06:38;60.17;;;16.87;;
75209;SDS011;63796;53.136;14.882;2022-12-07T15:09:05;60.30;;;20.08;;
75209;SDS011;63796;53.136;14.882;2022-12-07T15:11:32;45.52;;;15.08;;
75209;SDS011;63796;53.136;14.882;2022-12-07T15:13:59;38.05;;;12.07;;
75209;SDS011;63796;53.136;14.882;2022-12-07T15:16:37;22.22;;;9.55;;
75209;SDS011;63796;53.136;14.882;2022-12-07T15:19:14;39.37;;;14.43;;
75209;SDS011;63796;53.136;14.882;2022-12-07T15:21:41;45.38;;;16.57;;
75209;SDS011;63796;53.136;14.882;2022-12-07T15:24:12;91.02;;;32.10;;
75209;SDS011;63796;53.136;14.882;2022-12-07T15:26:39;115.40;;;35.65;;
75209;SDS011;63796;53.136;14.882;2022-12-07T15:29:07;182.88;;;58.58;;
75209;SDS011;63796;53.136;14.882;2022-12-07T15:31:34;131.57;;;42.77;;
75209;SDS011;63796;53.136;14.882;2022-12-07T15:34:01;130.40;;;42.95;;
75209;SDS011;63796;53.136;14.882;2022-12-07T15:36:32;146.30;;;45.75;;
75209;SDS011;63796;53.136;14.882;2022-12-07T15:38:59;199.80;;;57.80;;
75209;SDS011;63796;53.136;14.882;2022-12-07T15:41:26;193.30;;;58.60;;
75209;SDS011;63796;53.136;14.882;2022-12-07T15:43:53;150.53;;;41.57;;
75209;SDS011;63796;53.136;14.882;2022-12-07T15:46:39;138.37;;;47.03;;
75209;SDS011;63796;53.136;14.882;2022-12-07T15:49:15;171.30;;;48.45;;
75209;SDS011;63796;53.136;14.882;2022-12-07T15:51:42;91.63;;;32.42;;
75209;SDS011;63796;53.136;14.882;2022-12-07T15:54:13;76.35;;;24.55;;
75209;SDS011;63796;53.136;14.882;2022-12-07T15:56:48;72.50;;;25.07;;
75209;SDS011;63796;53.136;14.882;2022-12-07T15:59:15;93.10;;;31.20;;
75209;SDS011;63796;53.136;14.882;2022-12-07T16:01:42;80.90;;;29.30;;
75209;SDS011;63796;53.136;14.882;2022-12-07T16:04:10;64.75;;;22.13;;
75209;SDS011;63796;53.136;14.882;2022-12-07T16:06:37;198.75;;;58.48;;
75209;SDS011;63796;53.136;14.882;2022-12-07T16:09:04;87.53;;;33.63;;
75209;SDS011;63796;53.136;14.882;2022-12-07T16:11:31;62.55;;;23.60;;
75209;SDS011;63796;53.136;14.882;2022-12-07T16:13:58;35.60;;;13.43;;
75209;SDS011;63796;53.136;14.882;2022-12-07T16:16:25;32.88;;;10.48;;
75209;SDS011;63796;53.136;14.882;2022-12-07T16:18:53;25.30;;;9.55;;
75209;SDS011;63796;53.136;14.882;2022-12-07T16:21:20;22.70;;;9.67;;
75209;SDS011;63796;53.136;14.882;2022-12-07T16:23:47;32.00;;;12.33;;
75209;SDS011;63796;53.136;14.882;2022-12-07T16:26:15;28.17;;;11.95;;
75209;SDS011;63796;53.136;14.882;2022-12-07T16:28:45;19.87;;;9.23;;
75209;SDS011;63796;53.136;14.882;2022-12-07T16:31:19;64.42;;;21.68;;
75209;SDS011;63796;53.136;14.882;2022-12-07T16:33:48;34.10;;;13.10;;
75209;SDS011;63796;53.136;14.882;2022-12-07T16:36:17;49.55;;;16.67;;
75209;SDS011;63796;53.136;14.882;2022-12-07T16:38:44;96.17;;;31.42;;
75209;SDS011;63796;53.136;14.882;2022-12-07T16:41:11;88.47;;;30.50;;
75209;SDS011;63796;53.136;14.882;2022-12-07T16:43:38;86.82;;;33.48;;
75209;SDS011;63796;53.136;14.882;2022-12-07T16:46:06;147.57;;;51.10;;
75209;SDS011;63796;53.136;14.882;2022-12-07T16:48:37;168.62;;;51.98;;
75209;SDS011;63796;53.136;14.882;2022-12-07T16:51:06;73.10;;;23.77;;
75209;SDS011;63796;53.136;14.882;2022-12-07T16:53:35;64.03;;;22.27;;
75209;SDS011;63796;53.136;14.882;2022-12-07T16:56:04;44.23;;;16.93;;
75209;SDS011;63796;53.136;14.882;2022-12-07T16:58:36;137.67;;;40.80;;
75209;SDS011;63796;53.136;14.882;2022-12-07T17:01:10;96.02;;;29.48;;
75209;SDS011;63796;53.136;14.882;2022-12-07T17:03:42;67.75;;;20.97;;